createdAt,value
2023-02-27T00:02:53.058Z,2.4
2023-02-27T00:05:53.027Z,2.2
2023-02-27T00:08:53.089Z,1.9
2023-02-27T00:11:53.042Z,1.9
2023-02-27T00:14:53.069Z,1.9
2023-02-27T00:17:53.052Z,2.1
2023-02-27T00:20:53.055Z,2.1
2023-02-27T00:23:53.050Z,2.2
2023-02-27T00:26:53.066Z,2
2023-02-27T00:29:53.070Z,1.9
2023-02-27T00:32:53.097Z,2
2023-02-27T00:35:53.071Z,1.9
2023-02-27T00:38:53.116Z,2.2
2023-02-27T00:41:53.074Z,2
2023-02-27T00:44:53.076Z,2.2
2023-02-27T00:47:53.076Z,2.2
2023-02-27T00:50:53.112Z,2
2023-02-27T00:53:53.094Z,2
2023-02-27T00:56:53.096Z,2
2023-02-27T00:59:53.086Z,2.2
2023-02-27T01:02:53.187Z,2.2
2023-02-27T01:05:53.106Z,2.5
2023-02-27T01:08:53.135Z,2.7
2023-02-27T01:11:53.115Z,3
2023-02-27T01:14:53.112Z,3.5
2023-02-27T01:17:53.132Z,3.1
2023-02-27T01:20:53.141Z,3.3
2023-02-27T01:23:53.151Z,2.9
2023-02-27T01:26:53.182Z,2.8
2023-02-27T01:29:53.155Z,3.3
2023-02-27T01:32:53.161Z,3.5
2023-02-27T01:35:53.161Z,3.1
2023-02-27T01:38:53.173Z,3.3
2023-02-27T01:41:53.163Z,3.1
2023-02-27T01:44:53.194Z,3.2
2023-02-27T01:47:53.189Z,3.1
2023-02-27T01:50:53.193Z,3
2023-02-27T01:53:53.187Z,2.8
2023-02-27T01:56:53.197Z,3.1
2023-02-27T01:59:53.198Z,3.1
2023-02-27T02:02:53.224Z,3.1
2023-02-27T02:05:53.210Z,3
2023-02-27T02:08:53.224Z,3.5
2023-02-27T02:11:53.218Z,2.9
2023-02-27T02:14:53.224Z,2.9
2023-02-27T02:17:53.231Z,3.3
2023-02-27T02:20:53.258Z,3.6
2023-02-27T02:23:53.238Z,3.6
2023-02-27T02:26:53.259Z,3.7
2023-02-27T02:29:53.247Z,3.7
2023-02-27T02:32:53.251Z,3.6
2023-02-27T02:35:53.255Z,3.4
2023-02-27T02:38:53.280Z,3.8
2023-02-27T02:41:53.253Z,3.3
2023-02-27T02:44:53.264Z,3.7
2023-02-27T02:47:53.267Z,3.5
2023-02-27T02:50:53.279Z,3.7
2023-02-27T02:53:53.285Z,3.7
2023-02-27T02:56:53.312Z,3.5
2023-02-27T02:59:53.291Z,3.7
2023-02-27T03:02:53.305Z,3.9
2023-02-27T03:05:53.297Z,3.7
2023-02-27T03:08:53.313Z,4.2
2023-02-27T03:11:53.311Z,3.9
2023-02-27T03:14:53.335Z,3.9
2023-02-27T03:17:53.319Z,4.2
2023-02-27T03:20:53.317Z,4.3
2023-02-27T03:23:53.321Z,4.4
2023-02-27T03:26:53.334Z,4.5
2023-02-27T03:29:53.339Z,4.4
2023-02-27T03:32:53.361Z,4.7
2023-02-27T03:35:53.337Z,5.3
2023-02-27T03:38:53.344Z,5.4
2023-02-27T03:41:53.344Z,5.1
2023-02-27T03:44:53.354Z,5.3
2023-02-27T03:47:53.351Z,5.3
2023-02-27T03:50:53.391Z,5.4
2023-02-27T03:53:53.364Z,5.3
2023-02-27T03:56:53.364Z,5.1
2023-02-27T03:59:53.370Z,5.5
2023-02-27T04:02:53.417Z,5.1
2023-02-27T04:05:53.369Z,5.4
2023-02-27T04:08:53.415Z,5.2
2023-02-27T04:11:53.371Z,4.4
2023-02-27T04:14:53.373Z,4.8
2023-02-27T04:17:53.368Z,4.9
2023-02-27T04:20:53.404Z,5.1
2023-02-27T04:23:53.397Z,5.3
2023-02-27T04:26:53.425Z,5.6
2023-02-27T04:29:53.390Z,5.4
2023-02-27T04:32:53.517Z,5.2
2023-02-27T04:35:53.415Z,5.2
2023-02-27T04:38:53.413Z,5.5
2023-02-27T04:41:53.417Z,5.2
2023-02-27T04:44:53.443Z,5.2
2023-02-27T04:47:53.428Z,5.1
2023-02-27T04:50:53.434Z,5.1
2023-02-27T04:53:53.440Z,5
2023-02-27T04:56:53.447Z,5.1
2023-02-27T04:59:53.449Z,5.2
2023-02-27T05:02:53.491Z,5
2023-02-27T05:05:53.450Z,5.2
2023-02-27T05:08:53.458Z,4.8
2023-02-27T05:11:53.473Z,5.2
2023-02-27T05:14:53.465Z,5.5
2023-02-27T05:17:53.611Z,5.5
2023-02-27T05:20:53.497Z,6.2
2023-02-27T05:23:53.485Z,6.1
2023-02-27T05:26:53.484Z,6.6
2023-02-27T05:29:53.488Z,6.9
2023-02-27T05:32:53.494Z,7.2
2023-02-27T05:35:53.553Z,7
2023-02-27T05:38:53.537Z,7
2023-02-27T05:41:53.499Z,6.7
2023-02-27T05:44:53.502Z,6.8
2023-02-27T05:47:53.518Z,6.6
2023-02-27T05:50:53.514Z,6.9
2023-02-27T05:53:53.519Z,7.2
2023-02-27T05:56:53.557Z,6.5
2023-02-27T05:59:53.537Z,6.3
2023-02-27T06:02:53.536Z,6.5
2023-02-27T06:05:53.558Z,6.4
2023-02-27T06:08:53.538Z,6
2023-02-27T06:11:53.552Z,6.7
2023-02-27T06:14:53.579Z,6.1
2023-02-27T06:17:53.550Z,6
2023-02-27T06:20:53.562Z,5.8
2023-02-27T06:23:53.561Z,6.5
2023-02-27T06:26:53.573Z,6.1
2023-02-27T06:29:53.566Z,6
2023-02-27T06:32:53.598Z,5.5
2023-02-27T06:35:53.632Z,5.6
2023-02-27T06:38:53.597Z,5.8
2023-02-27T06:41:53.579Z,5.3
2023-02-27T06:44:53.594Z,5.5
2023-02-27T06:47:53.613Z,5.4
2023-02-27T06:50:53.629Z,5.5
2023-02-27T06:53:53.593Z,5.8
2023-02-27T06:56:53.608Z,5.4
2023-02-27T06:59:53.609Z,7.4
2023-02-27T07:02:53.618Z,7.8
2023-02-27T07:05:53.618Z,6.5
2023-02-27T07:08:54.103Z,6.7
2023-02-27T07:11:53.627Z,5.4
2023-02-27T07:14:53.639Z,4.9
2023-02-27T07:17:53.637Z,5.5
2023-02-27T07:20:53.636Z,5.4
2023-02-27T07:23:53.674Z,5.6
2023-02-27T07:26:53.703Z,5.3
2023-02-27T07:29:53.680Z,5
2023-02-27T07:32:53.678Z,4.9
2023-02-27T07:35:53.699Z,4.7
2023-02-27T07:38:53.690Z,5
2023-02-27T07:41:53.693Z,5.3
2023-02-27T07:44:53.722Z,4.9
2023-02-27T07:47:53.695Z,4.8
2023-02-27T07:50:53.693Z,5.5
2023-02-27T07:53:53.710Z,5.6
2023-02-27T07:56:53.701Z,5.5
2023-02-27T07:59:53.702Z,5.1
2023-02-27T08:02:53.758Z,5.5
2023-02-27T08:05:53.713Z,5.4
2023-02-27T08:08:53.706Z,5.1
2023-02-27T08:11:53.708Z,5.2
2023-02-27T08:14:53.728Z,5.1
2023-02-27T08:17:53.779Z,5
2023-02-27T08:20:53.751Z,5.2
2023-02-27T08:23:53.728Z,5.8
2023-02-27T08:26:53.725Z,6.7
2023-02-27T08:29:53.749Z,7
2023-02-27T08:32:53.737Z,6
2023-02-27T08:35:53.806Z,5.5
2023-02-27T08:38:53.764Z,6.2
2023-02-27T08:41:53.745Z,5.9
2023-02-27T08:44:53.738Z,5.5
2023-02-27T08:47:53.749Z,5.5
2023-02-27T08:50:53.753Z,5.3
2023-02-27T08:53:53.755Z,5
2023-02-27T08:56:53.788Z,4.9
2023-02-27T08:59:53.808Z,4.8
2023-02-27T09:02:53.933Z,4.8
2023-02-27T09:05:53.783Z,4.2
2023-02-27T09:08:53.777Z,3.9
2023-02-27T09:11:53.792Z,3.6
2023-02-27T09:14:53.825Z,3.6
2023-02-27T09:17:53.815Z,3.6
2023-02-27T09:20:53.808Z,3.7
2023-02-27T09:23:53.810Z,3.4
2023-02-27T09:26:53.816Z,3.5
2023-02-27T09:29:53.823Z,3.4
2023-02-27T09:32:53.859Z,3
2023-02-27T09:35:53.862Z,3.1
2023-02-27T09:38:53.846Z,3.3
2023-02-27T09:41:53.850Z,3.2
2023-02-27T09:44:53.852Z,2.8
2023-02-27T09:47:53.854Z,2.8
2023-02-27T09:50:53.908Z,2.3
2023-02-27T09:53:53.855Z,2
2023-02-27T09:56:53.874Z,2
2023-02-27T09:59:53.908Z,1.9
2023-02-27T10:02:53.965Z,1.8
2023-02-27T10:05:53.902Z,1.9
2023-02-27T10:08:53.928Z,2.2
2023-02-27T10:11:53.903Z,2.2
2023-02-27T10:14:53.904Z,2.5
2023-02-27T10:17:53.921Z,2.6
2023-02-27T10:20:53.911Z,2.8
2023-02-27T10:23:53.959Z,2.2
2023-02-27T10:26:53.934Z,2.1
2023-02-27T10:29:53.911Z,2.1
2023-02-27T10:32:53.915Z,2
2023-02-27T10:35:53.988Z,2
2023-02-27T10:38:53.935Z,1.9
2023-02-27T10:41:53.925Z,1.9
2023-02-27T10:44:53.935Z,1.9
2023-02-27T10:47:53.912Z,2
2023-02-27T10:50:53.916Z,2.2
2023-02-27T10:53:53.925Z,1.7
2023-02-27T10:56:53.914Z,2
2023-02-27T10:59:53.919Z,2
2023-02-27T11:02:53.941Z,1.9
2023-02-27T11:05:53.920Z,1.9
2023-02-27T11:08:53.915Z,1.9
2023-02-27T11:11:53.913Z,1.8
2023-02-27T11:14:53.915Z,1.8
2023-02-27T11:17:53.935Z,1.8
2023-02-27T11:20:53.944Z,2
2023-02-27T11:23:53.930Z,2
2023-02-27T11:26:53.923Z,1.8
2023-02-27T11:29:53.924Z,1.7
2023-02-27T11:32:53.938Z,1.6
2023-02-27T11:35:55.938Z,1.7
2023-02-27T11:38:53.972Z,1.8
2023-02-27T11:41:53.932Z,1.7
2023-02-27T11:44:53.933Z,1.7
2023-02-27T11:47:55.688Z,1.7
2023-02-27T11:50:53.933Z,2.1
2023-02-27T11:53:53.942Z,1.7
2023-02-27T11:56:54.001Z,1.7
2023-02-27T11:59:53.941Z,1.5
2023-02-27T12:02:53.964Z,1.9
2023-02-27T12:05:53.947Z,1.8
2023-02-27T12:08:53.942Z,1.9
2023-02-27T12:11:53.957Z,1.8
2023-02-27T12:14:54.022Z,1.9
2023-02-27T12:17:53.942Z,1.7
2023-02-27T12:20:53.946Z,1.9
2023-02-27T12:23:53.948Z,1.8
2023-02-27T12:26:53.958Z,1.7
2023-02-27T12:29:53.955Z,1.9
2023-02-27T12:32:53.980Z,1.5
2023-02-27T12:35:53.966Z,1.5
2023-02-27T12:38:53.950Z,1.5
2023-02-27T12:41:53.953Z,1.4
2023-02-27T12:44:53.956Z,1.3
2023-02-27T12:47:53.961Z,1.1
2023-02-27T12:50:53.989Z,1.1
2023-02-27T12:53:53.973Z,1.3
2023-02-27T12:56:53.965Z,1.5
2023-02-27T12:59:53.970Z,1.4
2023-02-27T13:02:53.982Z,1.4
2023-02-27T13:05:53.986Z,1.5
2023-02-27T13:08:54.035Z,1.4
2023-02-27T13:11:53.992Z,1.6
2023-02-27T13:14:54.002Z,1.4
2023-02-27T13:17:54.000Z,1.3
2023-02-27T13:20:54.003Z,1.3
2023-02-27T13:23:54.003Z,1.2
2023-02-27T13:26:54.043Z,1.2
2023-02-27T13:29:54.010Z,1.5
2023-02-27T13:32:54.134Z,1.2
2023-02-27T13:35:54.057Z,1.4
2023-02-27T13:38:54.039Z,1.2
2023-02-27T13:41:54.027Z,1.1
2023-02-27T13:44:54.087Z,1.1
2023-02-27T13:47:56.071Z,1.2
2023-02-27T13:50:54.065Z,1.1
2023-02-27T13:53:54.045Z,1.1
2023-02-27T13:56:54.051Z,0.9
2023-02-27T13:59:54.058Z,1
2023-02-27T14:02:59.675Z,1.1
2023-02-27T14:05:54.109Z,1.1
2023-02-27T14:08:57.528Z,1.2
2023-02-27T14:11:54.071Z,1.4
2023-02-27T14:14:54.075Z,1.3
2023-02-27T14:17:59.568Z,1.3
2023-02-27T14:20:54.104Z,1.8
2023-02-27T14:23:54.078Z,1.5
2023-02-27T14:26:54.089Z,1.3
2023-02-27T14:29:54.080Z,1.2
2023-02-27T14:32:54.079Z,1.2
2023-02-27T14:35:54.132Z,1.1
2023-02-27T14:38:54.108Z,1
2023-02-27T14:41:54.082Z,1.1
2023-02-27T14:44:54.084Z,1.1
2023-02-27T14:47:54.082Z,0.9
2023-02-27T14:50:54.282Z,1.1
2023-02-27T14:53:54.091Z,1
2023-02-27T14:56:54.117Z,0.9
2023-02-27T14:59:54.099Z,1.2
2023-02-27T15:02:54.093Z,0.9
2023-02-27T15:05:54.095Z,1
2023-02-27T15:08:54.090Z,0.9
2023-02-27T15:12:03.339Z,1
2023-02-27T15:14:54.205Z,1.1
2023-02-27T15:17:54.098Z,1.1
2023-02-27T15:20:54.137Z,0.9
2023-02-27T15:23:54.105Z,1
2023-02-27T15:26:54.113Z,0.9
2023-02-27T15:29:54.168Z,1
2023-02-27T15:32:55.765Z,0.9
2023-02-27T15:35:54.120Z,1.1
2023-02-27T15:38:54.106Z,1.1
2023-02-27T15:41:54.111Z,1
2023-02-27T15:44:54.108Z,1.2
2023-02-27T15:47:54.116Z,1.1
2023-02-27T15:50:54.150Z,1.4
2023-02-27T15:53:54.113Z,1.4
2023-02-27T15:56:54.119Z,1.1
2023-02-27T15:59:54.117Z,1
2023-02-27T16:02:54.173Z,1.4
2023-02-27T16:05:54.273Z,1.5
2023-02-27T16:08:54.164Z,1.1
2023-02-27T16:11:54.115Z,1.2
2023-02-27T16:14:54.123Z,2
2023-02-27T16:17:54.116Z,1.9
2023-02-27T16:20:54.124Z,2.5
2023-02-27T16:23:54.123Z,1.8
2023-02-27T16:26:54.149Z,1.4
2023-02-27T16:29:54.128Z,1
2023-02-27T16:32:54.131Z,1.2
2023-02-27T16:35:54.162Z,1.9
2023-02-27T16:38:54.134Z,2.1
2023-02-27T16:41:54.165Z,1.1
2023-02-27T16:44:54.186Z,0.9
2023-02-27T16:47:54.137Z,1.3
2023-02-27T16:50:54.145Z,1.1
2023-02-27T16:53:54.150Z,1.2
2023-02-27T16:56:54.149Z,1.1
2023-02-27T16:59:54.149Z,1.3
2023-02-27T17:02:54.177Z,1.6
2023-02-27T17:05:54.158Z,1.8
2023-02-27T17:08:54.198Z,1.7
2023-02-27T17:11:54.162Z,2.3
2023-02-27T17:14:54.168Z,1.7
2023-02-27T17:17:54.170Z,1.5
2023-02-27T17:20:54.203Z,1.6
2023-02-27T17:23:54.173Z,1.9
2023-02-27T17:26:54.181Z,1.7
2023-02-27T17:29:54.182Z,1.6
2023-02-27T17:32:54.188Z,1.4
2023-02-27T17:35:54.249Z,1.8
2023-02-27T17:38:54.226Z,1.9
2023-02-27T17:41:54.193Z,2.2
2023-02-27T17:44:54.189Z,1.9
2023-02-27T17:47:54.192Z,1.8
2023-02-27T17:50:54.190Z,2.4
2023-02-27T17:53:54.196Z,2.8
2023-02-27T17:56:54.234Z,2.4
2023-02-27T17:59:54.200Z,2.6
2023-02-27T18:02:54.292Z,2.6
2023-02-27T18:05:54.210Z,2.7
2023-02-27T18:08:54.213Z,3.1
2023-02-27T18:11:54.215Z,3.1
2023-02-27T18:14:54.244Z,2.7
2023-02-27T18:17:54.225Z,3.3
2023-02-27T18:20:54.223Z,3
2023-02-27T18:23:54.222Z,3
2023-02-27T18:26:54.231Z,3.2
2023-02-27T18:29:54.238Z,2.9
2023-02-27T18:32:54.256Z,3.2
2023-02-27T18:35:54.333Z,2.7
2023-02-27T18:38:54.239Z,2.6
2023-02-27T18:41:54.246Z,3
2023-02-27T18:44:54.248Z,2.7
2023-02-27T18:47:54.249Z,3.8
2023-02-27T18:50:54.305Z,2.1
2023-02-27T18:53:54.258Z,1.9
2023-02-27T18:56:54.270Z,2
2023-02-27T18:59:54.256Z,2.1
2023-02-27T19:02:54.312Z,2
2023-02-27T19:05:54.286Z,2.2
2023-02-27T19:08:54.293Z,2.6
2023-02-27T19:11:54.270Z,2.8
2023-02-27T19:14:54.278Z,4.1
2023-02-27T19:17:54.283Z,3.8
2023-02-27T19:20:55.347Z,3.6
2023-02-27T19:23:54.305Z,3.2
2023-02-27T19:26:54.316Z,3.5
2023-02-27T19:29:54.295Z,3.1
2023-02-27T19:32:54.301Z,3.3
2023-02-27T19:35:54.378Z,3.6
2023-02-27T19:38:54.324Z,4.2
2023-02-27T19:41:54.320Z,4.5
2023-02-27T19:44:54.343Z,8
2023-02-27T19:47:54.325Z,7.3
2023-02-27T19:50:54.327Z,12.3
2023-02-27T19:53:54.330Z,11.5
2023-02-27T19:56:54.346Z,18.8
2023-02-27T19:59:54.333Z,19.8
2023-02-27T20:02:54.363Z,18.5
2023-02-27T20:05:54.343Z,19.2
2023-02-27T20:08:54.345Z,18.2
2023-02-27T20:11:54.351Z,19.5
2023-02-27T20:14:54.355Z,33.4
2023-02-27T20:17:54.360Z,22.9
2023-02-27T20:20:54.385Z,21.7
2023-02-27T20:23:54.376Z,10.7
2023-02-27T20:26:54.365Z,8
2023-02-27T20:29:54.370Z,4.7
2023-02-27T20:32:54.381Z,4.8
2023-02-27T20:35:54.458Z,4.6
2023-02-27T20:38:54.416Z,4.2
2023-02-27T20:41:54.388Z,4.9
2023-02-27T20:44:54.397Z,4.6
2023-02-27T20:47:54.396Z,6.2
2023-02-27T20:50:54.402Z,5.3
2023-02-27T20:53:54.410Z,5.3
2023-02-27T20:56:54.467Z,5.5
2023-02-27T20:59:54.420Z,5.5
2023-02-27T21:02:54.422Z,5.3
2023-02-27T21:05:54.433Z,3.5
2023-02-27T21:08:54.436Z,3.9
2023-02-27T21:11:54.442Z,3.6
2023-02-27T21:14:54.472Z,4.6
2023-02-27T21:17:54.458Z,4
2023-02-27T21:20:54.464Z,4
2023-02-27T21:23:54.465Z,4
2023-02-27T21:26:54.468Z,4.1
2023-02-27T21:29:54.474Z,4.2
2023-02-27T21:32:54.502Z,4.3
2023-02-27T21:35:54.513Z,4.2
2023-02-27T21:38:54.495Z,4
2023-02-27T21:41:54.490Z,4.4
2023-02-27T21:44:54.495Z,6.2
2023-02-27T21:47:54.502Z,7.4
2023-02-27T21:50:54.527Z,4.7
2023-02-27T21:53:54.506Z,4.2
2023-02-27T21:56:54.508Z,4.6
2023-02-27T21:59:54.506Z,4.7
2023-02-27T22:02:54.517Z,4.5
2023-02-27T22:05:54.516Z,4.2
2023-02-27T22:08:54.547Z,4.3
2023-02-27T22:11:54.518Z,4.5
2023-02-27T22:14:54.521Z,4.3
2023-02-27T22:17:54.525Z,4.5
2023-02-27T22:20:54.527Z,4.3
2023-02-27T22:23:54.536Z,4.3
2023-02-27T22:26:54.559Z,4.7
2023-02-27T22:29:54.545Z,4.9
2023-02-27T22:32:54.546Z,5.4
2023-02-27T22:35:54.596Z,5.3
2023-02-27T22:38:54.553Z,5.1
2023-02-27T22:41:56.752Z,4.9
2023-02-27T22:44:54.591Z,5.5
2023-02-27T22:47:54.576Z,5.8
2023-02-27T22:50:54.573Z,5.2
2023-02-27T22:53:54.582Z,5.7
2023-02-27T22:56:56.973Z,5.8
2023-02-27T22:59:54.592Z,6
2023-02-27T23:02:54.618Z,5.9
2023-02-27T23:05:54.599Z,7.8
2023-02-27T23:08:54.601Z,7.8
2023-02-27T23:11:54.608Z,7.3
2023-02-27T23:14:54.727Z,7.5
2023-02-27T23:17:58.380Z,7.1
2023-02-27T23:20:54.636Z,7.4
2023-02-27T23:23:54.623Z,7.5
2023-02-27T23:26:54.639Z,7.3
2023-02-27T23:29:54.628Z,7.6
2023-02-27T23:32:54.629Z,8
2023-02-27T23:35:54.672Z,7.6
2023-02-27T23:38:54.658Z,8.2
2023-02-27T23:41:54.632Z,8.5
2023-02-27T23:44:54.641Z,9.3
2023-02-27T23:47:54.652Z,9.5
2023-02-27T23:50:54.642Z,11.4
2023-02-27T23:53:54.646Z,11.6
2023-02-27T23:56:54.676Z,10.9
2023-02-27T23:59:54.653Z,11
